Redwood City, CA (94063)

8:58 PM PDT on September 19, 2014 (GMT -0700)
Centennial | Change Station
CLOSE
Current Station
Personal Weather Station
Location: Redwood City, CA
Elevation: 10 ft
Nearby Weather Stations

Elev 10 ft 37.50 °N, 122.24 °W | Updated 13 minutes ago

Mostly Cloudy
Mostly Cloudy
66.4 °F
Feels Like 66.4 °F
N
0.0
Wind Variable Wind from SE
Gusts 3.0 mph

Today
High -- | Low -- °F
--% Chance of Precip.
Yesterday
High -- | Low -- °F
Precip. -- in
6:54 AM 7:10 PM
Waning Crescent, 15% visible
Pressure 29.89 in
Visibility 10.0 miles
Clouds Mostly Cloudy 7000 ft
Dew Point 60 °F
Humidity 79%
Rainfall 0.00 in
Snow Depth 0 in , 0 in , 0 in
UV 0 out of 12
Pollen 4.70 out of 12
PM2.5 Good
Flu Activity Not available.
METAR KSQL 200347Z 30006KT 10SM BKN070 19/15 A2989 RMK LAST

More Conditions Fewer Conditions

Pressure 29.89 in
Visibility 10.0 miles
Clouds Mostly Cloudy 7000 ft
Dew Point 60 °F
Humidity 79%
Rainfall 0.00 in
Snow Depth 0 in , 0 in , 0 in
UV 0 out of 12
Pollen 4.70 out of 12
PM2.5 Good
Flu Activity Not available.
METAR KSQL 200347Z 30006KT 10SM BKN070 19/15 A2989 RMK LAST

More Conditions Fewer Conditions

10-Day Weather Forecast

Almanac

Astronomy

Sep. 19, 2014 Rise Set
Actual Time 6:54 AM PDT 7:10 PM PDT
Civil Twilight 6:28 AM PDT 7:36 PM PDT
Nautical Twilight 5:57 AM PDT 8:06 PM PDT
Astronomical Twilight 5:26 AM PDT 8:37 PM PDT
Moon 2:48 AM PDT (9/19) 4:38 PM PDT (9/19)
Length of Visible Light 13h 08m
Length of Day
12h 16m
Tomorrow will be 2m 22s shorter.
Waning Crescent, 15% of the Moon is Illuminated
Today
Waning Crescent
Sep 24
New
Oct 1
First Quarter
Oct 8
Full
Oct 15
Last Quarter

Today's Extremes

State Highs State Lows

Community

WunderPhotos

Upload Photos

1,754,777 photos uploaded!

WunderBlogs® & News

Nearby

Air Quality

  Air Quality AQ Index Pollutant
Yesterday Good
OZONE
Yesterday Good
PM2.5
Current Good
PM2.5
Friday Good
OZONE
Saturday Moderate
PM2.5
Sunday Moderate
PM2.5
Monday Good
PM2.5
Tuesday Good
PM2.5
Wednesday Good
OZONE

Snow Depth

Station Depth Elevation
Blue Lakes 0 in 8000 ft
Leavitt Meadows 0 in 7200 ft
Leavitt Lake 0 in 9400 ft
CSS Lab 0 in 6900 ft
Adin Mountain 0 in 6200 ft

Earthquake Activity

City Distance Mag. Time & Date
Livermore, California 29 miles 2.6 3:37 AM PDT
2014-09-19
The Geysers, California 91 miles 2.5 11:29 PM PDT
2014-09-17
Cobb, California 94 miles 2.7 1:23 PM PDT
2014-09-16
Minimum magnitude displayed is 2.5.

Coastal Water Temperatures

Place Temperature
No Stations Reporting

Nearby Weather Stations